Glasgow International Airport – EGPF

METAR:

EGPF 111720Z AUTO 26010KT 240V300 9999 NCD 23/08 Q1022


TAF:

TAF EGPF 111659Z 1118/1218 25010KT CAVOK BECMG 1118/1121 VRB02KT TEMPO 1200/1208 7000 PROB30 1202/1207 0300 FG VV/// PROB30 1214/1218 29010KT